Time;durP1;ratioP1;P1;durP2;ratioP2;P2;SDS_P1;SDS_P2;PMS_P1;PMS_P2;Temp;Humidity;BMP_temperature;BMP_pressure;BME280_temperature;BME280_humidity;BME280_pressure;Samples;Min_cycle;Max_cycle;Signal;HPM_P1;HPM_P2
2021/08/28 00:01:24;;;;;;;4.60;3.20;;;16.70;99.90;;;;;;5033069;28;20174;-62
2021/08/28 00:03:49;;;;;;;3.23;3.03;;;16.60;99.90;;;;;;5033214;28;20666;-62
2021/08/28 00:06:15;;;;;;;3.80;2.70;;;16.50;99.90;;;;;;5033126;28;20265;-62
2021/08/28 00:08:40;;;;;;;3.90;3.27;;;16.50;99.90;;;;;;5032915;28;20177;-62
2021/08/28 00:11:06;;;;;;;3.87;2.90;;;16.50;99.90;;;;;;5033138;28;20174;-62
2021/08/28 00:13:32;;;;;;;4.50;3.07;;;16.50;99.90;;;;;;5032871;28;20661;-62
2021/08/28 00:15:58;;;;;;;2.87;2.57;;;16.60;99.90;;;;;;5033166;28;20409;-62
2021/08/28 00:18:23;;;;;;;3.77;2.80;;;16.50;99.90;;;;;;5033375;28;20652;-62
2021/08/28 00:20:49;;;;;;;4.63;2.67;;;16.30;99.90;;;;;;5033311;28;20170;-62
2021/08/28 00:23:14;;;;;;;4.13;3.10;;;16.50;99.90;;;;;;5032840;28;20199;-62
2021/08/28 00:25:40;;;;;;;3.20;2.90;;;16.30;99.90;;;;;;5015340;28;20168;-62
2021/08/28 00:28:06;;;;;;;3.60;3.27;;;16.40;99.90;;;;;;5033215;28;20512;-62
2021/08/28 00:30:31;;;;;;;4.53;2.80;;;16.40;99.90;;;;;;5032663;28;20172;-62
2021/08/28 00:33:11;;;;;;;3.17;2.37;;;16.50;99.90;;;;;;5032811;28;20218;-62
2021/08/28 00:35:37;;;;;;;3.20;2.90;;;16.40;99.90;;;;;;5033119;28;20167;-62
2021/08/28 00:38:04;;;;;;;3.60;2.97;;;16.50;99.90;;;;;;5032539;28;20786;-62
2021/08/28 00:40:30;;;;;;;3.83;2.70;;;16.40;99.90;;;;;;5033038;28;20447;-62
2021/08/28 00:42:55;;;;;;;3.20;2.90;;;16.50;99.90;;;;;;5032667;28;20854;-62
2021/08/28 00:45:22;;;;;;;4.07;2.87;;;16.50;99.90;;;;;;5032744;28;20219;-62
2021/08/28 00:48:05;;;;;;;3.00;2.40;;;16.40;99.90;;;;;;5035669;28;20233;-62
2021/08/28 00:50:33;;;;;;;5.87;2.83;;;16.30;99.90;;;;;;5037014;28;20506;-62
2021/08/28 00:53:01;;;;;;;2.50;1.70;;;16.30;99.90;;;;;;5036036;28;20556;-62
2021/08/28 00:55:27;;;;;;;5.00;2.80;;;16.50;99.90;;;;;;5036721;28;20486;-62
2021/08/28 00:57:57;;;;;;;2.90;2.50;;;16.70;99.90;;;;;;5036516;28;20408;-62
2021/08/28 01:00:22;;;;;;;3.37;3.07;;;16.60;99.90;;;;;;5036448;28;20407;-62
2021/08/28 01:02:50;;;;;;;3.97;3.17;;;16.50;99.90;;;;;;5036272;28;20481;-62
2021/08/28 01:05:33;;;;;;;4.00;3.43;;;16.60;99.90;;;;;;5036566;28;20175;-62
2021/08/28 01:08:11;;;;;;;3.93;2.97;;;16.50;99.90;;;;;;5036353;28;20392;-62
2021/08/28 01:10:41;;;;;;;3.57;2.70;;;16.50;99.90;;;;;;5036186;28;20432;-62
2021/08/28 01:13:13;;;;;;;4.80;2.87;;;16.40;99.90;;;;;;5037134;28;20419;-62
2021/08/28 01:15:40;;;;;;;2.63;2.43;;;16.30;99.90;;;;;;5036186;28;20396;-62
2021/08/28 01:18:11;;;;;;;2.70;2.50;;;16.40;99.90;;;;;;5036392;28;20409;-62
2021/08/28 01:21:00;;;;;;;7.20;2.57;;;16.60;99.90;;;;;;5035994;28;20410;-62
2021/08/28 01:23:30;;;;;;;5.00;2.80;;;16.40;99.90;;;;;;5024974;28;20447;-62
2021/08/28 01:26:00;;;;;;;4.00;3.10;;;16.50;99.90;;;;;;5036183;28;20412;-62
2021/08/28 01:28:31;;;;;;;6.43;2.90;;;16.30;99.90;;;;;;5035920;28;20397;-62
2021/08/28 01:30:57;;;;;;;3.73;2.47;;;16.20;99.90;;;;;;5035698;28;20389;-62
2021/08/28 01:33:23;;;;;;;2.83;2.60;;;16.30;99.90;;;;;;5035118;28;20787;-63
2021/08/28 01:35:50;;;;;;;4.90;3.10;;;16.10;99.90;;;;;;5034765;28;20446;-63
2021/08/28 01:38:17;;;;;;;3.60;3.30;;;16.00;99.90;;;;;;5035410;28;20408;-62
2021/08/28 01:40:43;;;;;;;4.23;3.20;;;16.10;99.90;;;;;;5035678;28;20835;-62
2021/08/28 01:43:10;;;;;;;6.97;3.37;;;16.10;99.90;;;;;;5034176;28;20877;-62
2021/08/28 01:45:36;;;;;;;4.27;3.33;;;16.40;99.90;;;;;;5033816;28;20491;-62
2021/08/28 01:48:03;;;;;;;3.43;2.63;;;16.30;99.90;;;;;;5015860;28;20418;-62
2021/08/28 01:50:29;;;;;;;4.60;3.10;;;16.20;99.90;;;;;;5015686;28;20905;-62
2021/08/28 01:52:55;;;;;;;2.77;2.57;;;16.30;99.90;;;;;;5015565;28;20492;-62
2021/08/28 01:55:20;;;;;;;3.07;2.87;;;16.50;99.90;;;;;;5015827;28;20807;-62
2021/08/28 01:57:46;;;;;;;3.17;2.87;;;16.50;99.90;;;;;;5014811;28;20186;-62
2021/08/28 02:00:13;;;;;;;4.73;3.27;;;16.30;99.90;;;;;;5015225;28;20714;-62
2021/08/28 02:02:38;;;;;;;3.67;3.00;;;16.20;99.90;;;;;;4997798;28;20257;-61
2021/08/28 02:05:05;;;;;;;4.53;3.40;;;16.00;99.90;;;;;;5017776;28;20433;-62
2021/08/28 02:07:46;;;;;;;4.00;3.60;;;16.10;99.90;;;;;;5035455;28;20543;-62
2021/08/28 02:10:23;;;;;;;4.50;3.07;;;16.10;99.90;;;;;;5035092;28;20409;-62
2021/08/28 02:12:55;;;;;;;6.17;3.90;;;16.10;99.90;;;;;;5033978;28;20560;-62
2021/08/28 02:15:26;;;;;;;5.23;4.27;;;16.10;99.90;;;;;;5035247;28;20442;-62
2021/08/28 02:18:04;;;;;;;6.37;4.23;;;16.10;99.90;;;;;;5035129;28;20396;-62
2021/08/28 02:20:35;;;;;;;6.00;5.23;;;16.00;99.90;;;;;;5035322;28;20393;-62
2021/08/28 02:23:06;;;;;;;4.97;4.47;;;15.90;99.90;;;;;;5035262;28;20929;-62
2021/08/28 02:25:50;;;;;;;5.00;4.50;;;15.80;99.90;;;;;;5035418;28;20389;-62
2021/08/28 02:28:23;;;;;;;4.93;4.53;;;15.90;99.90;;;;;;5035045;28;20935;-62
2021/08/28 02:30:52;;;;;;;4.10;3.70;;;16.10;99.90;;;;;;5016954;28;20409;-62
2021/08/28 02:33:18;;;;;;;5.53;4.20;;;16.30;99.90;;;;;;5034205;28;20435;-62
2021/08/28 02:35:44;;;;;;;5.23;4.77;;;16.40;99.90;;;;;;5034629;28;20981;-62
2021/08/28 02:38:12;;;;;;;6.07;5.50;;;16.30;99.90;;;;;;5034552;28;20773;-62
2021/08/28 02:40:39;;;;;;;6.13;5.53;;;16.10;99.90;;;;;;5033178;28;20429;-62
2021/08/28 02:43:05;;;;;;;5.97;5.10;;;16.00;99.90;;;;;;5034085;28;20490;-62
2021/08/28 02:45:31;;;;;;;7.17;6.43;;;15.90;99.90;;;;;;5034427;28;20948;-62
2021/08/28 02:48:00;;;;;;;8.60;7.70;;;16.00;99.90;;;;;;5034204;28;20411;-62
2021/08/28 02:50:26;;;;;;;7.73;7.03;;;16.00;99.90;;;;;;5034356;28;20411;-62
2021/08/28 02:52:53;;;;;;;8.53;7.70;;;15.90;99.90;;;;;;5058804;23;20980;-59
2021/08/28 02:55:19;;;;;;;10.80;8.07;;;15.90;99.90;;;;;;5033812;28;20444;-59
2021/08/28 02:57:50;;;;;;;8.40;7.30;;;15.90;99.90;;;;;;5033600;28;20414;-58
2021/08/28 03:00:17;;;;;;;8.63;7.83;;;15.90;99.90;;;;;;5034535;28;20385;-59
2021/08/28 03:02:44;;;;;;;9.10;8.27;;;15.90;99.90;;;;;;5033954;28;20913;-59
2021/08/28 03:05:12;;;;;;;8.03;7.23;;;15.80;99.90;;;;;;5032984;28;20447;-59
2021/08/28 03:07:40;;;;;;;10.53;9.43;;;15.90;99.90;;;;;;5034711;28;20438;-56
2021/08/28 03:10:08;;;;;;;8.80;7.77;;;15.90;99.90;;;;;;5032951;28;20473;-57
2021/08/28 03:12:34;;;;;;;10.93;8.43;;;15.70;99.90;;;;;;5032517;28;20436;-58
2021/08/28 03:15:00;;;;;;;9.60;8.63;;;15.80;99.90;;;;;;5033891;28;20460;-57
2021/08/28 03:17:28;;;;;;;8.13;7.33;;;15.80;99.90;;;;;;5034188;28;20250;-59
2021/08/28 03:19:56;;;;;;;11.07;9.73;;;15.90;99.90;;;;;;5034336;28;20412;-59
2021/08/28 03:22:22;;;;;;;12.80;11.57;;;16.00;99.90;;;;;;5033782;28;20432;-59
2021/08/28 03:24:48;;;;;;;11.13;10.00;;;15.80;99.90;;;;;;5033748;28;20400;-59
2021/08/28 03:27:16;;;;;;;11.87;10.60;;;15.80;99.90;;;;;;5033478;28;20170;-58
2021/08/28 03:29:43;;;;;;;12.90;11.67;;;15.70;99.90;;;;;;5033414;28;20414;-58
2021/08/28 03:32:09;;;;;;;13.03;11.50;;;15.70;99.90;;;;;;5033579;28;20773;-57
2021/08/28 03:34:36;;;;;;;14.40;12.40;;;15.90;99.90;;;;;;5033569;28;20518;-58
2021/08/28 03:37:02;;;;;;;12.83;11.60;;;15.70;99.90;;;;;;5033536;28;20424;-58
2021/08/28 03:39:28;;;;;;;13.50;11.77;;;15.70;99.90;;;;;;5033427;28;20402;-57
2021/08/28 03:41:54;;;;;;;14.00;12.27;;;15.70;99.90;;;;;;5033401;28;20426;-58
2021/08/28 03:44:20;;;;;;;14.73;12.97;;;15.70;99.90;;;;;;5032894;28;20419;-58
2021/08/28 03:46:47;;;;;;;15.43;13.00;;;15.80;99.90;;;;;;5033597;28;20547;-58
2021/08/28 03:49:13;;;;;;;13.37;12.07;;;15.90;99.90;;;;;;5015617;28;20180;-57
2021/08/28 03:51:39;;;;;;;13.17;11.97;;;15.80;99.90;;;;;;5033820;28;20404;-58
2021/08/28 03:54:04;;;;;;;13.10;11.80;;;15.90;99.90;;;;;;5032528;28;20471;-59
2021/08/28 03:56:30;;;;;;;14.10;12.50;;;16.00;99.90;;;;;;5015957;28;20179;-58
2021/08/28 03:58:56;;;;;;;13.50;12.10;;;16.00;99.90;;;;;;5013174;28;20174;-58
2021/08/28 04:01:22;;;;;;;14.10;12.80;;;16.00;99.90;;;;;;5013462;28;20174;-58
2021/08/28 04:03:47;;;;;;;15.23;12.37;;;16.00;99.90;;;;;;5013375;28;20194;-58
2021/08/28 04:06:13;;;;;;;13.13;12.03;;;15.80;99.90;;;;;;5022154;28;20424;-57
2021/08/28 04:08:39;;;;;;;14.90;13.40;;;15.90;99.90;;;;;;5032997;28;20171;-58
2021/08/28 04:11:05;;;;;;;15.80;14.30;;;15.90;99.90;;;;;;5033777;28;20455;-57
2021/08/28 04:13:30;;;;;;;14.67;13.27;;;15.80;99.90;;;;;;5032297;28;20681;-57
2021/08/28 04:15:56;;;;;;;14.97;13.47;;;15.80;99.90;;;;;;5033366;28;20163;-56
2021/08/28 04:18:22;;;;;;;15.07;13.50;;;15.70;99.90;;;;;;5033488;28;20171;-58
2021/08/28 04:20:48;;;;;;;16.73;14.10;;;15.70;99.90;;;;;;5033229;28;20412;-58
2021/08/28 04:23:13;;;;;;;14.03;12.67;;;15.80;99.90;;;;;;5036794;28;20274;-56
2021/08/28 04:25:39;;;;;;;13.90;12.50;;;16.00;99.90;;;;;;5037350;28;20253;-58
2021/08/28 04:28:05;;;;;;;14.00;12.70;;;16.00;99.90;;;;;;5037176;28;20165;-58
2021/08/28 04:30:32;;;;;;;16.90;15.30;;;16.10;99.90;;;;;;5037340;28;20505;-58
2021/08/28 04:32:58;;;;;;;15.13;13.73;;;16.10;99.90;;;;;;5037217;28;20921;-58
2021/08/28 04:35:24;;;;;;;15.60;14.10;;;16.10;99.90;;;;;;5037061;28;20470;-57
2021/08/28 04:37:50;;;;;;;17.67;15.70;;;16.00;99.90;;;;;;5036992;28;20409;-57
2021/08/28 04:40:17;;;;;;;17.83;14.77;;;16.00;99.90;;;;;;5037163;28;20412;-58
2021/08/28 04:42:43;;;;;;;18.70;16.07;;;16.00;99.90;;;;;;5037157;28;20501;-56
2021/08/28 04:45:09;;;;;;;17.87;16.17;;;16.00;99.90;;;;;;5037051;28;20399;-58
2021/08/28 04:47:34;;;;;;;16.50;14.90;;;16.00;99.90;;;;;;5036745;28;20404;-57
2021/08/28 04:50:00;;;;;;;15.33;13.83;;;16.00;99.90;;;;;;5037328;28;20459;-58
2021/08/28 04:52:25;;;;;;;16.37;14.70;;;16.10;99.90;;;;;;5036267;28;20227;-58
2021/08/28 04:54:51;;;;;;;15.73;13.60;;;16.00;99.90;;;;;;5036582;28;20702;-58
2021/08/28 04:57:17;;;;;;;14.00;12.73;;;16.00;99.90;;;;;;5036506;28;20194;-58
2021/08/28 04:59:42;;;;;;;14.80;13.30;;;15.90;99.90;;;;;;5036760;28;20253;-58
2021/08/28 05:02:08;;;;;;;16.10;14.60;;;16.00;99.90;;;;;;5036992;28;20254;-58
2021/08/28 05:04:33;;;;;;;17.00;15.30;;;15.90;99.90;;;;;;5036670;28;20187;-58
2021/08/28 05:06:59;;;;;;;17.13;15.30;;;15.70;99.90;;;;;;5035238;28;20255;-57
2021/08/28 05:09:25;;;;;;;18.47;16.70;;;15.70;99.90;;;;;;5036595;28;20181;-57
2021/08/28 05:11:51;;;;;;;18.80;16.80;;;15.60;99.90;;;;;;5036631;28;20462;-54
2021/08/28 05:14:17;;;;;;;19.83;16.20;;;15.70;99.90;;;;;;5044528;22;20228;-59
2021/08/28 05:16:42;;;;;;;17.73;15.13;;;15.80;99.90;;;;;;5026876;28;20431;-60
2021/08/28 05:19:08;;;;;;;18.53;16.80;;;15.90;99.90;;;;;;5020124;28;20183;-60
2021/08/28 05:21:34;;;;;;;15.90;14.07;;;15.90;99.90;;;;;;5035996;28;20631;-60
2021/08/28 05:23:59;;;;;;;17.77;15.97;;;15.80;99.90;;;;;;5034859;28;20668;-60
2021/08/28 05:26:25;;;;;;;16.00;14.50;;;15.70;99.90;;;;;;5035779;28;20711;-60
2021/08/28 05:28:50;;;;;;;19.30;16.20;;;15.70;99.90;;;;;;5039297;23;20237;-61
2021/08/28 05:31:16;;;;;;;18.07;16.10;;;15.70;99.90;;;;;;5002375;28;20246;-62
2021/08/28 05:33:42;;;;;;;18.00;16.20;;;15.90;99.90;;;;;;4995492;28;20206;-61
2021/08/28 05:36:07;;;;;;;18.27;15.60;;;15.90;99.90;;;;;;4996763;28;20171;-61
2021/08/28 05:38:33;;;;;;;16.40;14.70;;;15.90;99.90;;;;;;5011426;28;20635;-62
2021/08/28 05:41:00;;;;;;;16.53;15.03;;;15.80;99.90;;;;;;5035959;28;20166;-61
2021/08/28 05:43:25;;;;;;;19.73;15.13;;;15.60;99.90;;;;;;5036310;28;20177;-62
2021/08/28 05:45:51;;;;;;;16.70;15.00;;;15.60;99.90;;;;;;5035846;28;20759;-59
2021/08/28 05:48:17;;;;;;;15.60;14.10;;;15.70;99.90;;;;;;5035685;28;20648;-61
2021/08/28 05:50:42;;;;;;;15.70;14.30;;;15.80;99.90;;;;;;5035592;28;20641;-61
2021/08/28 05:53:08;;;;;;;16.33;14.63;;;15.80;99.90;;;;;;5035302;28;20222;-62
2021/08/28 05:55:34;;;;;;;16.80;15.20;;;15.80;99.90;;;;;;5006863;28;20183;-60
2021/08/28 05:57:59;;;;;;;18.00;16.23;;;15.80;99.90;;;;;;4996053;28;20939;-61
2021/08/28 06:00:25;;;;;;;16.60;14.37;;;15.80;99.90;;;;;;4996283;28;20182;-62
2021/08/28 06:02:51;;;;;;;15.97;14.37;;;15.90;99.90;;;;;;4996172;28;20252;-61
2021/08/28 06:05:16;;;;;;;16.83;15.17;;;15.70;99.90;;;;;;5002735;28;20254;-60
2021/08/28 06:07:42;;;;;;;16.17;14.63;;;15.70;99.90;;;;;;5035488;28;20184;-60
2021/08/28 06:10:08;;;;;;;15.63;13.93;;;15.70;99.90;;;;;;5035253;28;20698;-59
2021/08/28 06:12:35;;;;;;;15.07;13.57;;;15.80;99.90;;;;;;5035219;28;20548;-61
2021/08/28 06:15:01;;;;;;;12.77;11.57;;;15.90;99.90;;;;;;5034778;28;20436;-62
2021/08/28 06:17:27;;;;;;;14.77;13.00;;;15.80;99.90;;;;;;5034961;28;20860;-61
2021/08/28 06:19:53;;;;;;;15.23;13.70;;;15.70;99.90;;;;;;5035051;28;20555;-61
2021/08/28 06:22:18;;;;;;;14.87;13.37;;;15.90;99.90;;;;;;5035245;28;20201;-61
2021/08/28 06:24:44;;;;;;;14.47;13.20;;;15.90;99.90;;;;;;5035401;28;20174;-62
2021/08/28 06:27:10;;;;;;;13.87;12.67;;;15.80;99.90;;;;;;5034728;28;20175;-62
2021/08/28 06:29:36;;;;;;;14.90;13.20;;;15.90;99.90;;;;;;5034871;28;20194;-61
2021/08/28 06:32:03;;;;;;;15.83;14.23;;;15.80;99.90;;;;;;5035499;28;20170;-61
2021/08/28 06:34:29;;;;;;;14.17;12.77;;;15.80;99.90;;;;;;5033525;28;20432;-61
2021/08/28 06:36:55;;;;;;;13.70;12.40;;;15.90;99.90;;;;;;5034556;28;20425;-62
2021/08/28 06:39:20;;;;;;;12.47;11.40;;;16.00;99.90;;;;;;5034640;28;20205;-62
2021/08/28 06:41:46;;;;;;;12.43;11.33;;;16.00;99.90;;;;;;5043217;22;20295;-57
2021/08/28 06:44:11;;;;;;;11.53;10.43;;;16.20;99.90;;;;;;5023410;28;20182;-57
2021/08/28 06:46:38;;;;;;;11.70;10.63;;;16.30;99.90;;;;;;5014698;28;20662;-57
2021/08/28 06:49:04;;;;;;;13.10;11.90;;;16.40;99.90;;;;;;5014630;28;20183;-56
2021/08/28 06:51:30;;;;;;;12.20;11.10;;;16.30;99.90;;;;;;5028220;28;20912;-57
2021/08/28 06:53:56;;;;;;;12.67;11.47;;;16.30;99.90;;;;;;5034708;28;20451;-56
2021/08/28 06:56:22;;;;;;;21.63;18.90;;;16.30;99.90;;;;;;5033863;28;20416;-57
2021/08/28 06:58:47;;;;;;;22.50;20.30;;;16.20;99.90;;;;;;5034787;28;20900;-55
2021/08/28 07:01:13;;;;;;;15.17;13.43;;;16.30;99.90;;;;;;5034229;28;20191;-57
2021/08/28 07:03:38;;;;;;;12.80;11.50;;;16.40;99.90;;;;;;5034140;28;20164;-51
2021/08/28 07:06:04;;;;;;;11.70;10.60;;;16.30;99.90;;;;;;5034112;28;20242;-58
2021/08/28 07:08:30;;;;;;;19.83;17.83;;;16.50;99.90;;;;;;5034731;28;20164;-58
2021/08/28 07:10:55;;;;;;;12.70;11.57;;;16.80;99.90;;;;;;5033572;28;20198;-57
2021/08/28 07:13:22;;;;;;;15.10;13.53;;;17.10;99.90;;;;;;5034274;28;20171;-57
2021/08/28 07:15:48;;;;;;;14.63;13.33;;;17.30;99.90;;;;;;5034049;28;20195;-57
2021/08/28 07:18:14;;;;;;;10.33;9.43;;;17.40;99.90;;;;;;5034334;28;20394;-55
2021/08/28 07:20:40;;;;;;;14.37;11.50;;;17.30;99.90;;;;;;5034133;28;20913;-58
2021/08/28 07:23:06;;;;;;;11.40;10.33;;;17.20;99.90;;;;;;5055671;23;20490;-59
2021/08/28 07:25:37;;;;;;;11.63;10.53;;;16.90;99.90;;;;;;5018271;28;20651;-54
2021/08/28 07:28:06;;;;;;;10.60;9.70;;;16.80;99.90;;;;;;5012852;28;20429;-59
2021/08/28 07:30:32;;;;;;;8.30;7.60;;;16.90;99.90;;;;;;5013909;28;20418;-59
2021/08/28 07:32:57;;;;;;;12.43;10.23;;;17.00;99.90;;;;;;5013603;28;20431;-59
2021/08/28 07:35:23;;;;;;;9.10;8.30;;;16.70;99.90;;;;;;5013495;28;20191;-59
2021/08/28 07:37:48;;;;;;;9.10;8.20;;;16.80;99.90;;;;;;5012635;28;20199;-58
2021/08/28 07:40:14;;;;;;;25.77;23.10;;;17.00;99.90;;;;;;5013704;28;20203;-59
2021/08/28 07:42:40;;;;;;;8.20;7.40;;;17.20;99.90;;;;;;5012288;28;20166;-59
2021/08/28 07:45:06;;;;;;;32.77;25.80;;;17.20;99.90;;;;;;5013317;28;20171;-59
2021/08/28 07:47:32;;;;;;;7.33;6.73;;;17.20;99.90;;;;;;5013741;28;20195;-59
2021/08/28 07:49:58;;;;;;;28.87;25.77;;;17.20;99.90;;;;;;5013708;28;20533;-59
2021/08/28 07:52:23;;;;;;;6.33;5.70;;;17.20;99.90;;;;;;5012940;28;20183;-59
2021/08/28 07:54:49;;;;;;;24.50;19.70;;;17.10;99.90;;;;;;5013671;28;20239;-59
2021/08/28 07:57:14;;;;;;;33.43;28.57;;;17.00;99.90;;;;;;5012962;28;20603;-59
2021/08/28 07:59:40;;;;;;;21.80;18.63;;;17.20;99.90;;;;;;5013786;28;20172;-59
2021/08/28 08:02:06;;;;;;;9.37;8.47;;;17.20;99.90;;;;;;5013552;28;20164;-58
2021/08/28 08:04:31;;;;;;;692.23;470.03;;;17.40;99.90;;;;;;5012841;28;20684;-59
2021/08/28 08:06:57;;;;;;;33.73;25.10;;;17.80;99.90;;;;;;5012743;28;20183;-59
2021/08/28 08:09:22;;;;;;;24.27;17.63;;;17.60;99.90;;;;;;5013246;28;20190;-60
2021/08/28 08:11:48;;;;;;;88.30;57.60;;;17.80;99.90;;;;;;5013080;28;20251;-59
2021/08/28 08:14:13;;;;;;;7.53;6.77;;;18.00;99.90;;;;;;5013129;28;20256;-59
2021/08/28 08:16:39;;;;;;;6.67;5.97;;;18.00;99.90;;;;;;5013277;28;20171;-60
2021/08/28 08:19:05;;;;;;;4.37;3.97;;;17.90;99.90;;;;;;5013146;28;20806;-58
2021/08/28 08:21:31;;;;;;;13.10;11.80;;;17.80;99.90;;;;;;5012871;28;20174;-59
2021/08/28 08:23:56;;;;;;;3.37;3.07;;;17.70;99.90;;;;;;5013110;28;20211;-58
2021/08/28 08:26:22;;;;;;;18.57;16.77;;;17.80;99.90;;;;;;5013225;28;20180;-60
2021/08/28 08:28:48;;;;;;;4.83;4.43;;;18.00;99.90;;;;;;5013207;28;20660;-60
2021/08/28 08:31:14;;;;;;;8.00;7.40;;;18.00;99.90;;;;;;5013400;28;20632;-60
2021/08/28 08:33:39;;;;;;;6.33;5.83;;;17.80;99.90;;;;;;5013147;28;20257;-59
2021/08/28 08:36:05;;;;;;;4.37;3.97;;;17.70;99.90;;;;;;5013323;28;20540;-59
2021/08/28 08:38:31;;;;;;;6.20;5.70;;;17.50;99.90;;;;;;5012848;28;20228;-59
2021/08/28 08:40:57;;;;;;;5.50;5.00;;;17.40;99.90;;;;;;5012842;28;20176;-59
2021/08/28 08:43:23;;;;;;;4.10;3.47;;;17.40;99.90;;;;;;5012888;28;20183;-59
2021/08/28 08:45:49;;;;;;;3.63;3.40;;;17.40;99.90;;;;;;5012979;28;20774;-58
2021/08/28 08:48:15;;;;;;;4.20;3.80;;;17.50;99.90;;;;;;5012961;28;20174;-59
2021/08/28 08:50:43;;;;;;;3.50;3.20;;;17.60;99.90;;;;;;5013243;28;20410;-61
2021/08/28 08:53:09;;;;;;;3.80;3.50;;;17.50;99.90;;;;;;5011313;28;20815;-59
2021/08/28 08:55:35;;;;;;;3.90;3.23;;;17.60;99.90;;;;;;5012629;28;20481;-58
2021/08/28 08:58:01;;;;;;;4.50;4.10;;;17.90;99.90;;;;;;5012760;28;20445;-59
2021/08/28 09:00:27;;;;;;;5.30;4.80;;;17.80;99.90;;;;;;5013426;28;20202;-59
2021/08/28 09:02:53;;;;;;;4.63;4.20;;;17.70;99.90;;;;;;5012858;28;20607;-59
2021/08/28 09:05:18;;;;;;;4.67;3.93;;;17.90;99.90;;;;;;5012775;28;20411;-59
2021/08/28 09:07:44;;;;;;;3.70;3.10;;;18.00;99.90;;;;;;5013748;28;20176;-57
2021/08/28 09:10:12;;;;;;;3.07;2.77;;;17.90;99.90;;;;;;5015298;28;20179;-59
2021/08/28 09:12:40;;;;;;;3.13;2.93;;;17.90;99.90;;;;;;5016714;28;20183;-59
2021/08/28 09:15:08;;;;;;;3.27;3.00;;;18.00;99.90;;;;;;5016918;28;20438;-59
2021/08/28 09:17:35;;;;;;;3.50;3.20;;;17.80;99.90;;;;;;5016438;28;20443;-59
2021/08/28 09:20:15;;;;;;;3.63;3.33;;;17.70;99.90;;;;;;5016249;28;20422;-58
2021/08/28 09:22:41;;;;;;;4.17;3.70;;;17.70;99.90;;;;;;5016126;28;20391;-59
2021/08/28 09:25:08;;;;;;;4.27;3.43;;;17.70;99.90;;;;;;5016631;28;20784;-59
2021/08/28 09:27:40;;;;;;;3.83;3.53;;;17.60;99.90;;;;;;5015850;28;20179;-59
2021/08/28 09:30:24;;;;;;;4.13;3.20;;;17.60;99.90;;;;;;5016028;28;20413;-57
2021/08/28 09:33:11;;;;;;;6.20;3.70;;;17.90;99.90;;;;;;5016267;28;20388;-57
2021/08/28 09:35:58;;;;;;;3.57;3.23;;;18.00;99.90;;;;;;5014658;28;20469;-59
2021/08/28 09:38:24;;;;;;;3.63;3.33;;;18.10;99.90;;;;;;5015638;28;20411;-57
2021/08/28 09:40:55;;;;;;;5.10;3.80;;;18.30;99.90;;;;;;5015865;28;20463;-58
2021/08/28 09:43:22;;;;;;;3.67;3.37;;;18.10;99.90;;;;;;5015797;28;20186;-58
2021/08/28 09:45:51;;;;;;;3.23;2.93;;;18.00;99.90;;;;;;5016085;28;20489;-56
2021/08/28 09:48:18;;;;;;;4.07;3.67;;;17.90;99.90;;;;;;5015981;28;20414;-54
2021/08/28 09:50:54;;;;;;;3.27;2.97;;;17.80;99.90;;;;;;5015648;28;20406;-56
2021/08/28 09:53:26;;;;;;;2.60;2.40;;;17.60;99.90;;;;;;5015560;28;20865;-55
2021/08/28 09:55:55;;;;;;;2.80;2.47;;;17.70;99.90;;;;;;5015238;28;20395;-58
2021/08/28 09:58:24;;;;;;;2.63;2.43;;;17.60;99.90;;;;;;5015702;28;20895;-54
2021/08/28 10:00:50;;;;;;;2.83;2.60;;;17.60;99.90;;;;;;5015444;28;20399;-61
2021/08/28 10:03:18;;;;;;;3.00;2.57;;;17.50;99.90;;;;;;5016739;28;20435;-59
2021/08/28 10:05:45;;;;;;;2.67;2.47;;;17.50;99.90;;;;;;5017456;28;20179;-56
2021/08/28 10:08:11;;;;;;;2.93;2.63;;;17.40;99.90;;;;;;5016133;28;20441;-58
2021/08/28 10:10:39;;;;;;;3.40;3.00;;;17.50;99.90;;;;;;5015237;28;20400;-59
2021/08/28 10:13:06;;;;;;;2.37;2.20;;;17.50;99.90;;;;;;5015363;28;20219;-59
2021/08/28 10:15:33;;;;;;;2.63;2.43;;;17.50;99.90;;;;;;5015401;28;20878;-59
2021/08/28 10:18:02;;;;;;;2.83;2.60;;;17.70;99.90;;;;;;5016869;28;20776;-57
2021/08/28 10:20:28;;;;;;;3.13;2.30;;;17.50;99.90;;;;;;5014269;28;20414;-60
2021/08/28 10:22:56;;;;;;;2.40;2.20;;;17.20;99.90;;;;;;5014687;28;20443;-59
2021/08/28 10:25:25;;;;;;;2.67;2.23;;;17.10;99.90;;;;;;5015351;28;20391;-59
2021/08/28 10:27:52;;;;;;;3.00;2.80;;;16.80;99.90;;;;;;5015354;28;20485;-58
2021/08/28 10:30:19;;;;;;;2.57;2.37;;;16.90;99.90;;;;;;5014835;28;20407;-59
2021/08/28 10:32:46;;;;;;;3.40;3.13;;;17.00;99.90;;;;;;5014941;28;20407;-59
2021/08/28 10:35:14;;;;;;;3.17;2.97;;;17.20;99.90;;;;;;5015056;28;20446;-59
2021/08/28 10:37:40;;;;;;;3.73;3.47;;;17.30;99.90;;;;;;5014630;28;20411;-59
2021/08/28 10:40:09;;;;;;;3.40;3.10;;;17.50;99.90;;;;;;5015091;28;20403;-59
2021/08/28 10:42:36;;;;;;;4.23;3.50;;;17.60;99.90;;;;;;5014735;28;20403;-60
2021/08/28 10:45:02;;;;;;;5.43;3.00;;;17.60;99.90;;;;;;5014812;28;20585;-59
2021/08/28 10:47:31;;;;;;;3.20;3.00;;;17.60;99.90;;;;;;5015207;28;20411;-59
2021/08/28 10:50:05;;;;;;;4.33;3.97;;;17.50;99.90;;;;;;5014726;28;20406;-59
2021/08/28 10:52:34;;;;;;;2.87;2.67;;;17.60;99.90;;;;;;5014298;28;20395;-60
2021/08/28 10:55:12;;;;;;;3.47;3.17;;;17.80;99.90;;;;;;5014957;28;20451;-59
2021/08/28 10:57:39;;;;;;;2.70;2.50;;;17.70;99.90;;;;;;5014588;28;20490;-58
2021/08/28 11:00:11;;;;;;;2.53;2.33;;;18.00;99.90;;;;;;5014222;28;20414;-59
2021/08/28 11:02:58;;;;;;;2.00;1.90;;;18.40;99.90;;;;;;5014573;28;20737;-58
2021/08/28 11:05:32;;;;;;;1.43;1.33;;;18.60;99.90;;;;;;5014700;28;20391;-58
2021/08/28 11:08:15;;;;;;;1.50;1.40;;;18.60;99.90;;;;;;5013563;28;20410;-58
2021/08/28 11:10:41;;;;;;;1.80;1.70;;;18.70;99.90;;;;;;5013133;28;20409;-59
2021/08/28 11:13:07;;;;;;;1.60;1.50;;;19.20;99.90;;;;;;5014330;28;20434;-59
2021/08/28 11:15:35;;;;;;;1.97;1.87;;;20.30;99.90;;;;;;5014050;28;20192;-59
2021/08/28 11:18:10;;;;;;;2.60;1.80;;;21.20;99.90;;;;;;5014334;28;20418;-59
2021/08/28 11:20:44;;;;;;;2.13;1.60;;;21.80;99.90;;;;;;5014121;28;20402;-59
2021/08/28 11:23:10;;;;;;;2.10;1.80;;;22.00;99.90;;;;;;5013521;28;20448;-59
2021/08/28 11:25:39;;;;;;;2.03;1.60;;;22.80;99.90;;;;;;5014306;28;20397;-59
2021/08/28 11:28:05;;;;;;;1.60;1.50;;;22.80;99.90;;;;;;5014163;28;20195;-59
2021/08/28 11:30:54;;;;;;;1.60;1.50;;;22.70;99.90;;;;;;5013856;28;20435;-59
2021/08/28 11:33:19;;;;;;;1.43;1.33;;;21.90;99.90;;;;;;5013838;28;20514;-59
2021/08/28 11:35:51;;;;;;;2.03;1.27;;;22.10;99.90;;;;;;5013541;28;20490;-60
2021/08/28 11:38:23;;;;;;;1.33;1.20;;;22.20;99.90;;;;;;5013691;28;20179;-59
2021/08/28 11:41:06;;;;;;;1.33;1.17;;;22.20;99.90;;;;;;5014127;28;20383;-59
2021/08/28 11:43:34;;;;;;;1.07;0.97;;;22.70;99.90;;;;;;5013606;28;20930;-59
2021/08/28 11:46:05;;;;;;;1.57;1.30;;;22.30;99.90;;;;;;5012649;28;20832;-59
2021/08/28 11:48:32;;;;;;;1.73;0.80;;;22.00;99.90;;;;;;5014104;28;20391;-59
2021/08/28 11:50:58;;;;;;;1.27;0.80;;;20.90;99.90;;;;;;5013775;28;20919;-58
2021/08/28 11:53:28;;;;;;;1.00;0.90;;;20.90;99.90;;;;;;5013502;28;20426;-59
2021/08/28 11:56:15;;;;;;;1.37;0.90;;;21.10;99.90;;;;;;5013773;28;20548;-59
2021/08/28 11:59:07;;;;;;;1.00;0.90;;;21.30;99.90;;;;;;5014254;28;20470;-59
2021/08/28 12:01:41;;;;;;;0.90;0.70;;;21.60;99.90;;;;;;5010485;28;20415;-59
2021/08/28 12:04:10;;;;;;;1.27;0.73;;;21.50;99.90;;;;;;5013455;28;20423;-59
2021/08/28 12:06:40;;;;;;;2.33;0.90;;;21.20;99.90;;;;;;5013423;28;20895;-59
2021/08/28 12:09:08;;;;;;;1.00;0.90;;;21.10;99.90;;;;;;5013736;28;20403;-58
2021/08/28 12:11:36;;;;;;;1.07;0.90;;;20.90;99.90;;;;;;5012074;28;20461;-61
2021/08/28 12:14:03;;;;;;;1.00;0.90;;;20.50;99.90;;;;;;5013139;28;20455;-59
2021/08/28 12:16:39;;;;;;;1.10;0.73;;;20.40;99.90;;;;;;5013009;28;20508;-59
2021/08/28 12:19:11;;;;;;;1.20;0.97;;;20.20;99.90;;;;;;5013453;28;20395;-59
2021/08/28 12:21:40;;;;;;;1.27;1.17;;;20.60;99.90;;;;;;5013336;28;20410;-59
2021/08/28 12:24:13;;;;;;;1.00;0.90;;;20.60;99.90;;;;;;5012987;28;20450;-59
2021/08/28 12:26:39;;;;;;;1.63;0.97;;;20.90;99.90;;;;;;5013539;28;20855;-57
2021/08/28 12:29:05;;;;;;;0.80;0.70;;;21.10;99.90;;;;;;5013439;28;20419;-59
2021/08/28 12:31:32;;;;;;;0.80;0.60;;;22.20;99.30;;;;;;5012760;28;20914;-59
2021/08/28 12:34:02;;;;;;;0.90;0.70;;;23.50;98.20;;;;;;5013058;28;20541;-59
2021/08/28 12:36:30;;;;;;;1.20;0.73;;;24.50;95.70;;;;;;5013278;28;20395;-60
2021/08/28 12:39:06;;;;;;;1.37;0.73;;;23.60;95.70;;;;;;5013280;28;20434;-59
2021/08/28 12:41:31;;;;;;;1.10;0.77;;;22.40;96.80;;;;;;5013439;28;20418;-59